Paro Airport

VQPR | PBH

Paro , Paro , Bhutan

Thursday, October 24th, 2019 | 11:55

Weather

VQPR 240530Z 16007KT 9999 SCT030 BKN080 19/05 Q1021

Charts

No Charts Available

Gates

7 Available

Runways

1 Available

Events

No events for this airport


New event